createdAt,value
2018-08-20T00:00:16.848Z,1010.93
2018-08-20T00:01:16.871Z,1010.90
2018-08-20T00:02:16.902Z,1010.91
2018-08-20T00:03:16.937Z,1010.94
2018-08-20T00:04:16.966Z,1010.90
2018-08-20T00:05:16.998Z,1010.89
2018-08-20T00:06:17.025Z,1010.91
2018-08-20T00:07:17.060Z,1010.88
2018-08-20T00:08:17.090Z,1010.81
2018-08-20T00:09:17.119Z,1010.85
2018-08-20T00:10:17.154Z,1010.91
2018-08-20T00:11:17.181Z,1010.91
2018-08-20T00:12:17.215Z,1010.90
2018-08-20T00:13:17.243Z,1010.90
2018-08-20T00:14:17.276Z,1010.94
2018-08-20T00:15:17.305Z,1010.90
2018-08-20T00:16:17.341Z,1010.92
2018-08-20T00:17:17.370Z,1010.92
2018-08-20T00:18:17.400Z,1010.91
2018-08-20T00:19:17.430Z,1010.94
2018-08-20T00:20:17.466Z,1010.88
2018-08-20T00:21:17.494Z,1010.89
2018-08-20T00:22:17.527Z,1010.89
2018-08-20T00:23:17.556Z,1010.85
2018-08-20T00:24:17.587Z,1010.87
2018-08-20T00:25:17.619Z,1010.90
2018-08-20T00:26:17.647Z,1010.88
2018-08-20T00:27:17.678Z,1010.86
2018-08-20T00:28:17.712Z,1010.87
2018-08-20T00:29:17.743Z,1010.87
2018-08-20T00:30:17.771Z,1010.86
2018-08-20T00:31:17.804Z,1010.88
2018-08-20T00:32:17.833Z,1010.84
2018-08-20T00:33:17.864Z,1010.82
2018-08-20T00:34:17.895Z,1010.83
2018-08-20T00:35:17.926Z,1010.85
2018-08-20T00:36:18.003Z,1010.87
2018-08-20T00:37:17.990Z,1010.86
2018-08-20T00:38:18.019Z,1010.85
2018-08-20T00:39:18.053Z,1010.83
2018-08-20T00:40:18.085Z,1010.79
2018-08-20T00:41:18.115Z,1010.84
2018-08-20T00:42:18.146Z,1010.85
2018-08-20T00:43:18.174Z,1010.87
2018-08-20T00:44:18.207Z,1010.86
2018-08-20T00:45:18.247Z,1010.85
2018-08-20T00:46:18.266Z,1010.85
2018-08-20T00:47:18.300Z,1010.86
2018-08-20T00:48:18.330Z,1010.86
2018-08-20T00:49:18.362Z,1010.84
2018-08-20T00:50:18.390Z,1010.82
2018-08-20T00:51:18.421Z,1010.85
2018-08-20T00:52:18.453Z,1010.82
2018-08-20T00:53:18.490Z,1010.82
2018-08-20T00:54:18.517Z,1010.79
2018-08-20T00:55:18.545Z,1010.79
2018-08-20T00:56:18.578Z,1010.78
2018-08-20T00:57:18.606Z,1010.85
2018-08-20T00:58:18.640Z,1010.80
2018-08-20T00:59:18.668Z,1010.81
2018-08-20T01:00:18.703Z,1010.83
2018-08-20T01:01:18.731Z,1010.84
2018-08-20T01:02:18.763Z,1010.86
2018-08-20T01:03:18.791Z,1010.90
2018-08-20T01:04:18.827Z,1010.88
2018-08-20T01:05:18.853Z,1010.89
2018-08-20T01:06:18.887Z,1010.90
2018-08-20T01:07:18.915Z,1010.84
2018-08-20T01:08:18.945Z,1010.90
2018-08-20T01:09:18.976Z,1010.90
2018-08-20T01:10:19.008Z,1010.85
2018-08-20T01:11:19.038Z,1010.91
2018-08-20T01:12:19.072Z,1010.86
2018-08-20T01:13:19.099Z,1010.85
2018-08-20T01:14:19.133Z,1010.91
2018-08-20T01:15:19.160Z,1010.89
2018-08-20T01:16:19.194Z,1010.90
2018-08-20T01:17:19.225Z,1010.88
2018-08-20T01:18:19.254Z,1010.86
2018-08-20T01:19:19.284Z,1010.86
2018-08-20T01:20:19.316Z,1010.82
2018-08-20T01:21:19.348Z,1010.83
2018-08-20T01:22:19.380Z,1010.80
2018-08-20T01:23:19.407Z,1010.85
2018-08-20T01:24:19.439Z,1010.86
2018-08-20T01:25:19.471Z,1010.88
2018-08-20T01:26:19.500Z,1010.92
2018-08-20T01:27:19.533Z,1010.93
2018-08-20T01:28:19.564Z,1010.90
2018-08-20T01:29:19.592Z,1010.90
2018-08-20T01:30:19.626Z,1010.94
2018-08-20T01:31:19.654Z,1010.92
2018-08-20T01:32:19.689Z,1010.86
2018-08-20T01:33:19.715Z,1010.92
2018-08-20T01:34:19.746Z,1010.87
2018-08-20T01:35:19.778Z,1010.87
2018-08-20T01:36:19.813Z,1010.90
2018-08-20T01:37:19.841Z,1010.88
2018-08-20T01:38:19.872Z,1010.86
2018-08-20T01:39:19.901Z,1010.88
2018-08-20T01:40:19.935Z,1010.83
2018-08-20T01:41:19.962Z,1010.88
2018-08-20T01:42:19.999Z,1010.86
2018-08-20T01:43:20.025Z,1010.82
2018-08-20T01:44:20.055Z,1010.81
2018-08-20T01:45:20.088Z,1010.83
2018-08-20T01:46:20.116Z,1010.84
2018-08-20T01:47:20.145Z,1010.83
2018-08-20T01:48:20.184Z,1010.83
2018-08-20T01:49:20.207Z,1010.82
2018-08-20T01:50:20.241Z,1010.83
2018-08-20T01:51:20.272Z,1010.87
2018-08-20T01:52:20.303Z,1010.83
2018-08-20T01:53:20.333Z,1010.87
2018-08-20T01:54:20.365Z,1010.81
2018-08-20T01:55:20.401Z,1010.81
2018-08-20T01:56:20.424Z,1010.83
2018-08-20T01:57:20.454Z,1010.83
2018-08-20T01:58:20.488Z,1010.87
2018-08-20T01:59:20.518Z,1010.81
2018-08-20T02:00:20.547Z,1010.78
2018-08-20T02:01:20.579Z,1010.78
2018-08-20T02:02:20.608Z,1010.83
2018-08-20T02:03:20.641Z,1010.78
2018-08-20T02:04:20.672Z,1010.74
2018-08-20T02:05:20.701Z,1010.75
2018-08-20T02:06:20.736Z,1010.69
2018-08-20T02:07:20.763Z,1010.70
2018-08-20T02:08:20.795Z,1010.70
2018-08-20T02:09:20.826Z,1010.70
2018-08-20T02:10:20.853Z,1010.74
2018-08-20T02:11:20.888Z,1010.72
2018-08-20T02:12:20.915Z,1010.75
2018-08-20T02:13:20.949Z,1010.70
2018-08-20T02:14:20.976Z,1010.74
2018-08-20T02:15:21.011Z,1010.73
2018-08-20T02:16:21.041Z,1010.73
2018-08-20T02:17:21.069Z,1010.69
2018-08-20T02:18:21.098Z,1010.74
2018-08-20T02:19:21.136Z,1010.71
2018-08-20T02:20:21.163Z,1010.74
2018-08-20T02:21:21.191Z,1010.65
2018-08-20T02:22:21.224Z,1010.65
2018-08-20T02:23:21.252Z,1010.69
2018-08-20T02:24:21.285Z,1010.61
2018-08-20T02:25:21.317Z,1010.64
2018-08-20T02:26:21.345Z,1010.61
2018-08-20T02:27:21.379Z,1010.63
2018-08-20T02:28:21.407Z,1010.62
2018-08-20T02:29:21.439Z,1010.61
2018-08-20T02:30:21.470Z,1010.56
2018-08-20T02:31:21.499Z,1010.68
2018-08-20T02:32:21.534Z,1010.68
2018-08-20T02:33:21.562Z,1010.67
2018-08-20T02:34:21.590Z,1010.69
2018-08-20T02:35:21.623Z,1010.66
2018-08-20T02:36:21.657Z,1010.66
2018-08-20T02:37:21.683Z,1010.70
2018-08-20T02:38:21.713Z,1010.69
2018-08-20T02:39:21.744Z,1010.72
2018-08-20T02:40:21.778Z,1010.67
2018-08-20T02:41:21.806Z,1010.65
2018-08-20T02:42:21.841Z,1010.64
2018-08-20T02:43:21.866Z,1010.68
2018-08-20T02:44:21.897Z,1010.63
2018-08-20T02:45:21.929Z,1010.67
2018-08-20T02:46:21.958Z,1010.66
2018-08-20T02:47:21.990Z,1010.66
2018-08-20T02:48:22.021Z,1010.66
2018-08-20T02:49:22.050Z,1010.67
2018-08-20T02:50:22.082Z,1010.65
2018-08-20T02:51:22.110Z,1010.66
2018-08-20T02:52:22.145Z,1010.66
2018-08-20T02:53:22.172Z,1010.67
2018-08-20T02:54:22.205Z,1010.69
2018-08-20T02:55:22.237Z,1010.66
2018-08-20T02:56:22.268Z,1010.64
2018-08-20T02:57:22.296Z,1010.63
2018-08-20T02:58:22.325Z,1010.62
2018-08-20T02:59:22.356Z,1010.62
2018-08-20T03:00:22.392Z,1010.59
2018-08-20T03:01:22.417Z,1010.59
2018-08-20T03:02:22.451Z,1010.56
2018-08-20T03:03:22.480Z,1010.56
2018-08-20T03:04:22.509Z,1010.53
2018-08-20T03:05:22.541Z,1010.53
2018-08-20T03:06:22.572Z,1010.55
2018-08-20T03:07:22.601Z,1010.55
2018-08-20T03:08:22.633Z,1010.56
2018-08-20T03:09:22.661Z,1010.55
2018-08-20T03:10:22.695Z,1010.54
2018-08-20T03:11:22.724Z,1010.56
2018-08-20T03:12:22.756Z,1010.62
2018-08-20T03:13:22.787Z,1010.63
2018-08-20T03:14:22.814Z,1010.61
2018-08-20T03:15:22.845Z,1010.59
2018-08-20T03:16:22.925Z,1010.61
2018-08-20T03:17:22.959Z,1010.58
2018-08-20T03:18:22.940Z,1010.65
2018-08-20T03:19:22.971Z,1010.61
2018-08-20T03:20:23.005Z,1010.61
2018-08-20T03:21:23.029Z,1010.59
2018-08-20T03:22:23.060Z,1010.61
2018-08-20T03:23:23.091Z,1010.59
2018-08-20T03:24:23.121Z,1010.61
2018-08-20T03:25:23.155Z,1010.60
2018-08-20T03:26:23.185Z,1010.60
2018-08-20T03:27:23.212Z,1010.58
2018-08-20T03:28:23.246Z,1010.56
2018-08-20T03:29:23.274Z,1010.56
2018-08-20T03:30:23.306Z,1010.58
2018-08-20T03:31:23.338Z,1010.59
2018-08-20T03:32:23.368Z,1010.56
2018-08-20T03:33:23.396Z,1010.57
2018-08-20T03:34:23.449Z,1010.58
2018-08-20T03:35:23.458Z,1010.63
2018-08-20T03:36:23.490Z,1010.64
2018-08-20T03:37:23.518Z,1010.64
2018-08-20T03:38:23.548Z,1010.63
2018-08-20T03:39:23.578Z,1010.65
2018-08-20T03:40:23.610Z,1010.62
2018-08-20T03:41:23.640Z,1010.61
2018-08-20T03:42:23.672Z,1010.65
2018-08-20T03:43:23.701Z,1010.65
2018-08-20T03:44:23.731Z,1010.65
2018-08-20T03:45:23.762Z,1010.63
2018-08-20T03:46:23.794Z,1010.65
2018-08-20T03:47:23.822Z,1010.61
2018-08-20T03:48:23.857Z,1010.62
2018-08-20T03:49:23.883Z,1010.68
2018-08-20T03:50:23.917Z,1010.64
2018-08-20T03:51:23.949Z,1010.65
2018-08-20T03:52:23.975Z,1010.66
2018-08-20T03:53:24.007Z,1010.67
2018-08-20T03:54:24.044Z,1010.69
2018-08-20T03:55:24.068Z,1010.70
2018-08-20T03:56:24.100Z,1010.68
2018-08-20T03:57:24.127Z,1010.68
2018-08-20T03:58:24.156Z,1010.67
2018-08-20T03:59:24.187Z,1010.70
2018-08-20T04:00:24.217Z,1010.71
2018-08-20T04:01:24.250Z,1010.75
2018-08-20T04:02:24.281Z,1010.72
2018-08-20T04:03:24.313Z,1010.71
2018-08-20T04:04:24.340Z,1010.73
2018-08-20T04:05:24.388Z,1010.74
2018-08-20T04:06:24.401Z,1010.81
2018-08-20T04:07:24.431Z,1010.74
2018-08-20T04:08:24.462Z,1010.76
2018-08-20T04:09:24.492Z,1010.74
2018-08-20T04:10:24.526Z,1010.75
2018-08-20T04:11:24.555Z,1010.71
2018-08-20T04:12:24.584Z,1010.67
2018-08-20T04:13:24.617Z,1010.68
2018-08-20T04:14:24.645Z,1010.67
2018-08-20T04:15:24.674Z,1010.65
2018-08-20T04:16:24.705Z,1010.69
2018-08-20T04:17:24.739Z,1010.73
2018-08-20T04:18:24.769Z,1010.72
2018-08-20T04:19:24.799Z,1010.64
2018-08-20T04:20:24.827Z,1010.73
2018-08-20T04:21:24.857Z,1010.63
2018-08-20T04:22:24.893Z,1010.66
2018-08-20T04:23:24.923Z,1010.61
2018-08-20T04:24:24.951Z,1010.66
2018-08-20T04:25:24.981Z,1010.67
2018-08-20T04:26:25.013Z,1010.62
2018-08-20T04:27:25.041Z,1010.55
2018-08-20T04:28:25.070Z,1010.58
2018-08-20T04:29:25.107Z,1010.59
2018-08-20T04:30:25.158Z,1010.59
2018-08-20T04:31:25.164Z,1010.57
2018-08-20T04:32:25.203Z,1010.53
2018-08-20T04:33:25.222Z,1010.51
2018-08-20T04:34:25.254Z,1010.50
2018-08-20T04:35:25.288Z,1010.45
2018-08-20T04:36:25.371Z,1010.46
2018-08-20T04:37:25.347Z,1010.54
2018-08-20T04:38:25.377Z,1010.65
2018-08-20T04:39:25.461Z,1010.68
2018-08-20T04:40:25.436Z,1010.71
2018-08-20T04:41:25.469Z,1010.69
2018-08-20T04:42:25.498Z,1010.69
2018-08-20T04:43:25.528Z,1010.71
2018-08-20T04:44:25.565Z,1010.63
2018-08-20T04:45:25.588Z,1010.62
2018-08-20T04:46:25.626Z,1010.63
2018-08-20T04:47:25.651Z,1010.61
2018-08-20T04:48:25.678Z,1010.61
2018-08-20T04:49:25.707Z,1010.62
2018-08-20T04:50:25.809Z,1010.62
2018-08-20T04:51:25.840Z,1010.68
2018-08-20T04:52:25.802Z,1010.65
2018-08-20T04:53:25.834Z,1010.64
2018-08-20T04:54:25.867Z,1010.67
2018-08-20T04:55:25.897Z,1010.64
2018-08-20T04:56:25.922Z,1010.64
2018-08-20T04:57:25.954Z,1010.58
2018-08-20T04:58:25.985Z,1010.63
2018-08-20T04:59:26.015Z,1010.60
2018-08-20T05:00:26.045Z,1010.57
2018-08-20T05:01:26.077Z,1010.61
2018-08-20T05:02:26.107Z,1010.67
2018-08-20T05:03:26.135Z,1010.64
2018-08-20T05:04:26.170Z,1010.62
2018-08-20T05:05:26.195Z,1010.66
2018-08-20T05:06:26.226Z,1010.69
2018-08-20T05:07:26.256Z,1010.74
2018-08-20T05:08:26.287Z,1010.74
2018-08-20T05:09:26.325Z,1010.74
2018-08-20T05:10:26.346Z,1010.70
2018-08-20T05:11:26.378Z,1010.79
2018-08-20T05:12:26.410Z,1010.81
2018-08-20T05:13:26.442Z,1010.79
2018-08-20T05:14:26.470Z,1010.79
2018-08-20T05:15:26.501Z,1010.80
2018-08-20T05:16:26.530Z,1010.80
2018-08-20T05:17:26.561Z,1010.85
2018-08-20T05:18:26.591Z,1010.82
2018-08-20T05:19:26.620Z,1010.88
2018-08-20T05:20:26.650Z,1010.87
2018-08-20T05:21:26.681Z,1010.89
2018-08-20T05:22:26.712Z,1010.86
2018-08-20T05:23:26.743Z,1010.87
2018-08-20T05:24:26.774Z,1010.86
2018-08-20T05:25:26.806Z,1010.90
2018-08-20T05:26:26.834Z,1010.85
2018-08-20T05:27:26.868Z,1010.89
2018-08-20T05:28:26.896Z,1010.92
2018-08-20T05:29:27.064Z,1010.91
2018-08-20T05:30:27.040Z,1010.91
2018-08-20T05:31:26.993Z,1010.91
2018-08-20T05:32:27.014Z,1010.97
2018-08-20T05:33:27.046Z,1010.95
2018-08-20T05:34:27.074Z,1010.99
2018-08-20T05:35:27.112Z,1011.02
2018-08-20T05:36:27.137Z,1011.04
2018-08-20T05:37:27.170Z,1011.04
2018-08-20T05:38:27.198Z,1011.05
2018-08-20T05:39:27.230Z,1011.05
2018-08-20T05:40:27.258Z,1011.06
2018-08-20T05:41:27.289Z,1011.05
2018-08-20T05:42:27.319Z,1011.03
2018-08-20T05:43:27.354Z,1011.08
2018-08-20T05:44:27.380Z,1011.08
2018-08-20T05:45:27.409Z,1011.09
2018-08-20T05:46:27.440Z,1011.06
2018-08-20T05:47:27.471Z,1011.09
2018-08-20T05:48:27.499Z,1011.07
2018-08-20T05:49:27.530Z,1011.07
2018-08-20T05:50:27.560Z,1011.14
2018-08-20T05:51:27.591Z,1011.13
2018-08-20T05:52:27.635Z,1011.07
2018-08-20T05:53:27.656Z,1011.08
2018-08-20T05:54:27.683Z,1011.11
2018-08-20T05:55:27.714Z,1011.16
2018-08-20T05:56:27.742Z,1011.18
2018-08-20T05:57:27.772Z,1011.16
2018-08-20T05:58:27.802Z,1011.16
2018-08-20T05:59:27.836Z,1011.18
2018-08-20T06:00:27.867Z,1011.19
2018-08-20T06:01:27.896Z,1011.13
2018-08-20T06:02:27.928Z,1011.16
2018-08-20T06:03:27.957Z,1011.19
2018-08-20T06:04:27.990Z,1011.20
2018-08-20T06:05:28.015Z,1011.21
2018-08-20T06:06:28.045Z,1011.25
2018-08-20T06:07:28.080Z,1011.25
2018-08-20T06:08:28.112Z,1011.30
2018-08-20T06:09:28.140Z,1011.34
2018-08-20T06:10:28.168Z,1011.31
2018-08-20T06:11:28.197Z,1011.36
2018-08-20T06:12:28.230Z,1011.30
2018-08-20T06:13:28.262Z,1011.42
2018-08-20T06:14:28.291Z,1011.39
2018-08-20T06:15:28.327Z,1011.41
2018-08-20T06:16:28.350Z,1011.40
2018-08-20T06:17:28.383Z,1011.43
2018-08-20T06:18:28.413Z,1011.40
2018-08-20T06:19:28.444Z,1011.38
2018-08-20T06:20:28.476Z,1011.40
2018-08-20T06:21:28.505Z,1011.37
2018-08-20T06:22:28.575Z,1011.42
2018-08-20T06:23:28.564Z,1011.46
2018-08-20T06:24:28.597Z,1011.49
2018-08-20T06:25:28.625Z,1011.49
2018-08-20T06:26:28.660Z,1011.52
2018-08-20T06:27:28.688Z,1011.52
2018-08-20T06:28:28.768Z,1011.54
2018-08-20T06:29:28.751Z,1011.58
2018-08-20T06:30:28.775Z,1011.59
2018-08-20T06:31:28.808Z,1011.61
2018-08-20T06:32:28.841Z,1011.60
2018-08-20T06:33:28.867Z,1011.59
2018-08-20T06:34:28.900Z,1011.55
2018-08-20T06:35:28.932Z,1011.57
2018-08-20T06:36:28.961Z,1011.57
2018-08-20T06:37:28.993Z,1011.60
2018-08-20T06:38:29.024Z,1011.56
2018-08-20T06:39:29.053Z,1011.61
2018-08-20T06:40:29.086Z,1011.56
2018-08-20T06:41:29.154Z,1011.55
2018-08-20T06:42:29.143Z,1011.60
2018-08-20T06:43:29.175Z,1011.57
2018-08-20T06:44:29.208Z,1011.56
2018-08-20T06:45:29.235Z,1011.54
2018-08-20T06:46:29.266Z,1011.55
2018-08-20T06:47:29.296Z,1011.54
2018-08-20T06:48:29.329Z,1011.54
2018-08-20T06:49:29.357Z,1011.56
2018-08-20T06:50:29.388Z,1011.51
2018-08-20T06:51:29.422Z,1011.52
2018-08-20T06:52:29.453Z,1011.54
2018-08-20T06:53:29.483Z,1011.52
2018-08-20T06:54:29.564Z,1011.57
2018-08-20T06:55:29.545Z,1011.53
2018-08-20T06:56:29.576Z,1011.57
2018-08-20T06:57:29.604Z,1011.55
2018-08-20T06:58:29.633Z,1011.56
2018-08-20T06:59:29.664Z,1011.60
2018-08-20T07:00:29.697Z,1011.58
2018-08-20T07:01:29.726Z,1011.59
2018-08-20T07:02:29.758Z,1011.58
2018-08-20T07:03:29.789Z,1011.61
2018-08-20T07:04:29.820Z,1011.59
2018-08-20T07:05:29.851Z,1011.57
2018-08-20T07:06:29.965Z,1011.59
2018-08-20T07:07:29.910Z,1011.65
2018-08-20T07:08:29.947Z,1011.63
2018-08-20T07:09:29.971Z,1011.64
2018-08-20T07:10:30.005Z,1011.67
2018-08-20T07:11:30.037Z,1011.70
2018-08-20T07:12:30.064Z,1011.66
2018-08-20T07:13:30.097Z,1011.65
2018-08-20T07:14:30.125Z,1011.64
2018-08-20T07:15:30.158Z,1011.66
2018-08-20T07:16:30.187Z,1011.67
2018-08-20T07:17:30.258Z,1011.68
2018-08-20T07:18:30.247Z,1011.67
2018-08-20T07:19:30.281Z,1011.69
2018-08-20T07:20:30.313Z,1011.69
2018-08-20T07:21:30.340Z,1011.69
2018-08-20T07:22:30.372Z,1011.73
2018-08-20T07:23:30.497Z,1011.69
2018-08-20T07:24:30.436Z,1011.75
2018-08-20T07:25:30.465Z,1011.73
2018-08-20T07:26:30.497Z,1011.76
2018-08-20T07:27:30.526Z,1011.80
2018-08-20T07:28:30.558Z,1011.79
2018-08-20T07:29:30.586Z,1011.75
2018-08-20T07:30:30.619Z,1011.78
2018-08-20T07:31:30.648Z,1011.75
2018-08-20T07:32:30.680Z,1011.75
2018-08-20T07:33:30.713Z,1011.79
2018-08-20T07:34:30.742Z,1011.80
2018-08-20T07:35:30.771Z,1011.82
2018-08-20T07:36:30.804Z,1011.78
2018-08-20T07:37:30.832Z,1011.81
2018-08-20T07:38:30.865Z,1011.86
2018-08-20T07:39:30.894Z,1011.82
2018-08-20T07:40:30.927Z,1011.82
2018-08-20T07:41:30.957Z,1011.82
2018-08-20T07:42:31.044Z,1011.84
2018-08-20T07:43:31.017Z,1011.81
2018-08-20T07:44:31.053Z,1011.87
2018-08-20T07:45:31.081Z,1011.84
2018-08-20T07:46:31.112Z,1011.85
2018-08-20T07:47:31.143Z,1011.86
2018-08-20T07:48:31.179Z,1011.92
2018-08-20T07:49:31.207Z,1011.91
2018-08-20T07:50:31.235Z,1011.87
2018-08-20T07:51:31.271Z,1011.97
2018-08-20T07:52:31.300Z,1011.89
2018-08-20T07:53:31.326Z,1011.97
2018-08-20T07:54:31.359Z,1011.99
2018-08-20T07:55:31.446Z,1011.97
2018-08-20T07:56:31.422Z,1011.97
2018-08-20T07:57:31.452Z,1011.95
2018-08-20T07:58:31.487Z,1011.93
2018-08-20T07:59:31.516Z,1011.97
2018-08-20T08:00:31.546Z,1011.98
2018-08-20T08:01:31.579Z,1012.03
2018-08-20T08:02:31.611Z,1012.07
2018-08-20T08:03:31.644Z,1012.07
2018-08-20T08:04:31.676Z,1012.01
2018-08-20T08:05:31.703Z,1012.03
2018-08-20T08:06:31.733Z,1012.03
2018-08-20T08:07:31.764Z,1012.05
2018-08-20T08:08:31.799Z,1012.06
2018-08-20T08:09:31.830Z,1012.06
2018-08-20T08:10:31.856Z,1012.09
2018-08-20T08:11:31.890Z,1012.11
2018-08-20T08:12:31.921Z,1012.14
2018-08-20T08:13:31.951Z,1012.19
2018-08-20T08:14:31.982Z,1012.19
2018-08-20T08:15:32.009Z,1012.20
2018-08-20T08:16:32.045Z,1012.22
2018-08-20T08:17:32.073Z,1012.27
2018-08-20T08:18:32.181Z,1012.24
2018-08-20T08:19:32.135Z,1012.24
2018-08-20T08:20:32.170Z,1012.29
2018-08-20T08:21:32.196Z,1012.30
2018-08-20T08:22:32.231Z,1012.26
2018-08-20T08:23:32.259Z,1012.29
2018-08-20T08:24:32.298Z,1012.32
2018-08-20T08:25:32.323Z,1012.29
2018-08-20T08:26:32.361Z,1012.29
2018-08-20T08:27:32.387Z,1012.25
2018-08-20T08:28:32.417Z,1012.34
2018-08-20T08:29:32.446Z,1012.25
2018-08-20T08:30:32.481Z,1012.29
2018-08-20T08:31:32.508Z,1012.24
2018-08-20T08:32:32.541Z,1012.34
2018-08-20T08:33:32.574Z,1012.30
2018-08-20T08:34:32.605Z,1012.33
2018-08-20T08:35:32.638Z,1012.37
2018-08-20T08:36:32.666Z,1012.33
2018-08-20T08:37:32.696Z,1012.36
2018-08-20T08:38:32.726Z,1012.34
2018-08-20T08:39:32.758Z,1012.31
2018-08-20T08:40:32.792Z,1012.31
2018-08-20T08:41:32.822Z,1012.33
2018-08-20T08:42:32.852Z,1012.30
2018-08-20T08:43:32.914Z,1012.23
2018-08-20T08:44:32.917Z,1012.29
2018-08-20T08:45:32.947Z,1012.30
2018-08-20T08:46:32.979Z,1012.33
2018-08-20T08:47:33.010Z,1012.32
2018-08-20T08:48:33.046Z,1012.23
2018-08-20T08:49:33.071Z,1012.27
2018-08-20T08:50:33.102Z,1012.29
2018-08-20T08:51:33.136Z,1012.27
2018-08-20T08:52:33.166Z,1012.29
2018-08-20T08:53:33.195Z,1012.30
2018-08-20T08:54:33.233Z,1012.28
2018-08-20T08:55:33.264Z,1012.30
2018-08-20T08:56:33.292Z,1012.32
2018-08-20T08:57:33.321Z,1012.30
2018-08-20T08:58:33.357Z,1012.36
2018-08-20T08:59:33.386Z,1012.38
2018-08-20T09:00:33.471Z,1012.35
2018-08-20T09:01:33.452Z,1012.39
2018-08-20T09:02:33.481Z,1012.47
2018-08-20T09:03:33.515Z,1012.50
2018-08-20T09:04:33.544Z,1012.60
2018-08-20T09:05:33.576Z,1012.64
2018-08-20T09:06:33.613Z,1012.57
2018-08-20T09:07:33.640Z,1012.60
2018-08-20T09:08:33.673Z,1012.56
2018-08-20T09:09:33.704Z,1012.52
2018-08-20T09:10:33.735Z,1012.52
2018-08-20T09:11:33.768Z,1012.52
2018-08-20T09:12:33.801Z,1012.52
2018-08-20T09:13:33.883Z,1012.48
2018-08-20T09:14:33.870Z,1012.42
2018-08-20T09:15:33.896Z,1012.46
2018-08-20T09:16:33.927Z,1012.42
2018-08-20T09:17:33.960Z,1012.40
2018-08-20T09:18:33.993Z,1012.40
2018-08-20T09:19:34.026Z,1012.44
2018-08-20T09:20:34.072Z,1012.36
2018-08-20T09:21:34.095Z,1012.36
2018-08-20T09:22:34.123Z,1012.34
2018-08-20T09:23:34.159Z,1012.34
2018-08-20T09:24:34.186Z,1012.37
2018-08-20T09:25:34.219Z,1012.41
2018-08-20T09:26:34.253Z,1012.43
2018-08-20T09:27:34.283Z,1012.44
2018-08-20T09:28:34.319Z,1012.42
2018-08-20T09:29:34.350Z,1012.42
2018-08-20T09:30:34.382Z,1012.42
2018-08-20T09:31:34.415Z,1012.40
2018-08-20T09:32:34.445Z,1012.41
2018-08-20T09:33:34.478Z,1012.42
2018-08-20T09:34:34.510Z,1012.44
2018-08-20T09:35:34.542Z,1012.49
2018-08-20T09:36:34.575Z,1012.64
2018-08-20T09:37:34.607Z,1012.42
2018-08-20T09:38:34.639Z,1012.40
2018-08-20T09:39:34.674Z,1012.40
2018-08-20T09:40:34.707Z,1012.41
2018-08-20T09:41:34.737Z,1012.43
2018-08-20T09:42:34.773Z,1012.45
2018-08-20T09:43:34.806Z,1012.43
2018-08-20T09:44:34.838Z,1012.47
2018-08-20T09:45:34.872Z,1012.49
2018-08-20T09:46:34.905Z,1012.46
2018-08-20T09:47:34.935Z,1012.50
2018-08-20T09:48:34.969Z,1012.56
2018-08-20T09:49:35.001Z,1012.74
2018-08-20T09:50:35.034Z,1012.49
2018-08-20T09:51:35.069Z,1012.46
2018-08-20T09:52:35.100Z,1012.47
2018-08-20T09:53:35.135Z,1012.47
2018-08-20T09:54:35.164Z,1012.39
2018-08-20T09:55:35.203Z,1012.31
2018-08-20T09:56:35.232Z,1012.28
2018-08-20T09:57:35.264Z,1012.23
2018-08-20T09:58:35.299Z,1012.23
2018-08-20T09:59:35.331Z,1012.26
2018-08-20T10:00:35.368Z,1012.22
2018-08-20T10:01:35.396Z,1012.21
2018-08-20T10:02:35.430Z,1012.19
2018-08-20T10:03:35.462Z,1012.21
2018-08-20T10:04:35.495Z,1012.19
2018-08-20T10:05:35.528Z,1012.16
2018-08-20T10:06:35.563Z,1012.14
2018-08-20T10:07:35.594Z,1012.19
2018-08-20T10:08:35.649Z,1012.16
2018-08-20T10:09:35.666Z,1012.14
2018-08-20T10:10:35.693Z,1012.13
2018-08-20T10:11:35.838Z,1012.18
2018-08-20T10:12:35.790Z,1012.21
2018-08-20T10:13:35.800Z,1012.18
2018-08-20T10:14:35.824Z,1012.16
2018-08-20T10:15:35.860Z,1012.16
2018-08-20T10:16:35.892Z,1012.20
2018-08-20T10:17:35.926Z,1012.21
2018-08-20T10:18:36.091Z,1012.18
2018-08-20T10:19:35.988Z,1012.21
2018-08-20T10:20:36.023Z,1012.19
2018-08-20T10:21:36.052Z,1012.23
2018-08-20T10:22:36.085Z,1012.26
2018-08-20T10:23:36.120Z,1012.22
2018-08-20T10:24:36.170Z,1012.21
2018-08-20T10:25:36.181Z,1012.18
2018-08-20T10:26:36.217Z,1012.20
2018-08-20T10:27:36.247Z,1012.20
2018-08-20T10:28:36.283Z,1012.22
2018-08-20T10:29:36.313Z,1012.21
2018-08-20T10:30:36.342Z,1012.23
2018-08-20T10:31:36.377Z,1012.28
2018-08-20T10:32:36.449Z,1012.30
2018-08-20T10:33:36.438Z,1012.29
2018-08-20T10:34:36.474Z,1012.25
2018-08-20T10:35:36.506Z,1012.33
2018-08-20T10:36:36.538Z,1012.28
2018-08-20T10:37:36.608Z,1012.25
2018-08-20T10:38:36.602Z,1012.29
2018-08-20T10:39:36.634Z,1012.29
2018-08-20T10:40:36.664Z,1012.29
2018-08-20T10:41:36.695Z,1012.26
2018-08-20T10:42:36.728Z,1012.35
2018-08-20T10:43:36.797Z,1012.35
2018-08-20T10:44:36.796Z,1012.40
2018-08-20T10:45:36.823Z,1012.36
2018-08-20T10:46:36.855Z,1012.36
2018-08-20T10:47:36.889Z,1012.33
2018-08-20T10:48:36.920Z,1012.31
2018-08-20T10:49:37.031Z,1012.38
2018-08-20T10:50:36.987Z,1012.39
2018-08-20T10:51:37.018Z,1012.37
2018-08-20T10:52:37.050Z,1012.38
2018-08-20T10:53:37.079Z,1012.34
2018-08-20T10:54:37.113Z,1012.33
2018-08-20T10:55:37.141Z,1012.36
2018-08-20T10:56:37.174Z,1012.41
2018-08-20T10:57:37.207Z,1012.36
2018-08-20T10:58:37.236Z,1012.40
2018-08-20T10:59:37.271Z,1012.41
2018-08-20T11:00:37.300Z,1012.43
2018-08-20T11:01:37.334Z,1012.44
2018-08-20T11:02:37.362Z,1012.44
2018-08-20T11:03:37.397Z,1012.44
2018-08-20T11:04:37.425Z,1012.49
2018-08-20T11:05:37.465Z,1012.49
2018-08-20T11:06:37.495Z,1012.47
2018-08-20T11:07:37.521Z,1012.46
2018-08-20T11:08:37.555Z,1012.49
2018-08-20T11:09:37.586Z,1012.53
2018-08-20T11:10:37.616Z,1012.52
2018-08-20T11:11:37.652Z,1012.54
2018-08-20T11:12:37.682Z,1012.54
2018-08-20T11:13:37.709Z,1012.56
2018-08-20T11:14:37.745Z,1012.62
2018-08-20T11:15:37.774Z,1012.61
2018-08-20T11:16:37.806Z,1012.60
2018-08-20T11:17:37.838Z,1012.60
2018-08-20T11:18:37.884Z,1012.62
2018-08-20T11:19:37.901Z,1012.67
2018-08-20T11:20:37.930Z,1012.70
2018-08-20T11:21:37.963Z,1012.65
2018-08-20T11:22:37.994Z,1012.64
2018-08-20T11:23:38.028Z,1012.68
2018-08-20T11:24:38.055Z,1012.70
2018-08-20T11:25:38.092Z,1012.70
2018-08-20T11:26:38.118Z,1012.69
2018-08-20T11:27:38.254Z,1012.64
2018-08-20T11:28:38.185Z,1012.68
2018-08-20T11:29:38.213Z,1012.66
2018-08-20T11:30:38.245Z,1012.59
2018-08-20T11:31:38.278Z,1012.63
2018-08-20T11:32:38.310Z,1012.66
2018-08-20T11:33:38.343Z,1012.66
2018-08-20T11:34:38.370Z,1012.70
2018-08-20T11:35:38.407Z,1012.72
2018-08-20T11:36:38.503Z,1012.71
2018-08-20T11:37:38.467Z,1012.75
2018-08-20T11:38:38.496Z,1012.74
2018-08-20T11:39:38.530Z,1012.75
2018-08-20T11:40:38.560Z,1012.71
2018-08-20T11:41:38.591Z,1012.75
2018-08-20T11:42:38.631Z,1012.68
2018-08-20T11:43:38.655Z,1012.69
2018-08-20T11:44:38.690Z,1012.69
2018-08-20T11:45:39.528Z,1012.71
2018-08-20T11:46:38.751Z,1012.66
2018-08-20T11:47:38.782Z,1012.64
2018-08-20T11:48:38.816Z,1012.59
2018-08-20T11:49:38.848Z,1012.59
2018-08-20T11:50:38.879Z,1012.60
2018-08-20T11:51:38.914Z,1012.54
2018-08-20T11:52:38.943Z,1012.55
2018-08-20T11:53:38.973Z,1012.53
2018-08-20T11:54:39.008Z,1012.50
2018-08-20T11:55:39.038Z,1012.56
2018-08-20T11:56:39.070Z,1012.56
2018-08-20T11:57:39.102Z,1012.50
2018-08-20T11:58:39.134Z,1012.46
2018-08-20T11:59:39.167Z,1012.45
2018-08-20T12:00:39.196Z,1012.48
2018-08-20T12:01:39.227Z,1012.47
2018-08-20T12:02:39.264Z,1012.46
2018-08-20T12:03:39.294Z,1012.48
2018-08-20T12:04:39.325Z,1012.53
2018-08-20T12:05:39.357Z,1012.57